sensor_id;sensor_type;location;lat;lon;timestamp;pressure;altitude;pressure_sealevel;temperature
65600;BMP280;52272;-29.642;-50.764;2022-09-03T00:02:43;101366.28;;;19.49
65600;BMP280;52272;-29.642;-50.764;2022-09-03T00:05:34;101357.97;;;18.53
65600;BMP280;52272;-29.642;-50.764;2022-09-03T00:13:41;101372.25;;;18.59
65600;BMP280;52272;-29.642;-50.764;2022-09-03T00:16:15;101378.84;;;18.38
65600;BMP280;52272;-29.642;-50.764;2022-09-03T00:18:53;101386.84;;;18.04
65600;BMP280;52272;-29.642;-50.764;2022-09-03T00:21:40;101385.53;;;17.99
65600;BMP280;52272;-29.642;-50.764;2022-09-03T00:24:14;101383.69;;;18.05
65600;BMP280;52272;-29.642;-50.764;2022-09-03T00:26:56;101390.03;;;18.17
65600;BMP280;52272;-29.642;-50.764;2022-09-03T00:29:40;101401.53;;;17.88
65600;BMP280;52272;-29.642;-50.764;2022-09-03T00:33:17;101402.38;;;17.94
65600;BMP280;52272;-29.642;-50.764;2022-09-03T00:35:22;101399.50;;;17.83
65600;BMP280;52272;-29.642;-50.764;2022-09-03T00:37:55;101402.53;;;17.76
65600;BMP280;52272;-29.642;-50.764;2022-09-03T00:55:16;101426.19;;;18.10
65600;BMP280;52272;-29.642;-50.764;2022-09-03T00:58:40;101430.81;;;17.95
65600;BMP280;52272;-29.642;-50.764;2022-09-03T01:00:48;101438.09;;;18.47
65600;BMP280;52272;-29.642;-50.764;2022-09-03T01:06:16;101435.59;;;18.29
65600;BMP280;52272;-29.642;-50.764;2022-09-03T01:11:58;101445.88;;;18.31
65600;BMP280;52272;-29.642;-50.764;2022-09-03T01:23:38;101466.47;;;18.28
65600;BMP280;52272;-29.642;-50.764;2022-09-03T01:29:27;101477.75;;;18.03
65600;BMP280;52272;-29.642;-50.764;2022-09-03T01:40:35;101485.88;;;17.65
65600;BMP280;52272;-29.642;-50.764;2022-09-03T01:43:25;101489.22;;;17.60
65600;BMP280;52272;-29.642;-50.764;2022-09-03T01:46:08;101491.47;;;17.76
65600;BMP280;52272;-29.642;-50.764;2022-09-03T01:49:06;101497.78;;;17.73
65600;BMP280;52272;-29.642;-50.764;2022-09-03T01:51:39;101501.41;;;17.47
65600;BMP280;52272;-29.642;-50.764;2022-09-03T02:00:06;101501.56;;;17.90
65600;BMP280;52272;-29.642;-50.764;2022-09-03T02:02:42;101501.16;;;17.83
65600;BMP280;52272;-29.642;-50.764;2022-09-03T02:05:20;101498.13;;;17.66
65600;BMP280;52272;-29.642;-50.764;2022-09-03T02:08:02;101508.06;;;17.84
65600;BMP280;52272;-29.642;-50.764;2022-09-03T02:10:52;101509.81;;;17.87
65600;BMP280;52272;-29.642;-50.764;2022-09-03T02:13:37;101504.91;;;17.85
65600;BMP280;52272;-29.642;-50.764;2022-09-03T02:16:16;101505.50;;;17.80
65600;BMP280;52272;-29.642;-50.764;2022-09-03T02:18:54;101515.72;;;17.76
65600;BMP280;52272;-29.642;-50.764;2022-09-03T02:21:29;101514.34;;;18.19
65600;BMP280;52272;-29.642;-50.764;2022-09-03T02:24:06;101516.25;;;18.56
65600;BMP280;52272;-29.642;-50.764;2022-09-03T02:26:37;101518.00;;;18.59
65600;BMP280;52272;-29.642;-50.764;2022-09-03T02:29:10;101526.38;;;18.61
65600;BMP280;52272;-29.642;-50.764;2022-09-03T02:31:45;101523.28;;;18.82
65600;BMP280;52272;-29.642;-50.764;2022-09-03T02:34:15;101530.41;;;19.14
65600;BMP280;52272;-29.642;-50.764;2022-09-03T02:36:46;101525.50;;;18.98
65600;BMP280;52272;-29.642;-50.764;2022-09-03T02:39:16;101524.72;;;19.12
65600;BMP280;52272;-29.642;-50.764;2022-09-03T02:41:50;101534.84;;;19.32
65600;BMP280;52272;-29.642;-50.764;2022-09-03T02:44:30;101528.03;;;19.36
65600;BMP280;52272;-29.642;-50.764;2022-09-03T02:47:06;101528.63;;;19.46
65600;BMP280;52272;-29.642;-50.764;2022-09-03T02:49:37;101526.47;;;19.30
65600;BMP280;52272;-29.642;-50.764;2022-09-03T02:52:09;101533.88;;;19.35
65600;BMP280;52272;-29.642;-50.764;2022-09-03T02:54:41;101545.09;;;19.28
65600;BMP280;52272;-29.642;-50.764;2022-09-03T02:57:15;101543.94;;;19.34
65600;BMP280;52272;-29.642;-50.764;2022-09-03T02:59:55;101552.78;;;19.15
65600;BMP280;52272;-29.642;-50.764;2022-09-03T03:02:25;101560.19;;;19.20
65600;BMP280;52272;-29.642;-50.764;2022-09-03T03:04:59;101551.03;;;19.32
65600;BMP280;52272;-29.642;-50.764;2022-09-03T03:07:34;101552.06;;;19.00
65600;BMP280;52272;-29.642;-50.764;2022-09-03T03:10:06;101548.78;;;18.96
65600;BMP280;52272;-29.642;-50.764;2022-09-03T03:12:36;101558.09;;;17.99
65600;BMP280;52272;-29.642;-50.764;2022-09-03T03:15:07;101549.81;;;18.55
65600;BMP280;52272;-29.642;-50.764;2022-09-03T03:17:37;101552.63;;;18.75
65600;BMP280;52272;-29.642;-50.764;2022-09-03T03:20:07;101561.19;;;18.88
65600;BMP280;52272;-29.642;-50.764;2022-09-03T03:22:41;101558.94;;;18.86
65600;BMP280;52272;-29.642;-50.764;2022-09-03T03:25:13;101555.03;;;18.73
65600;BMP280;52272;-29.642;-50.764;2022-09-03T03:27:46;101560.25;;;18.76
65600;BMP280;52272;-29.642;-50.764;2022-09-03T03:30:17;101559.03;;;18.92
65600;BMP280;52272;-29.642;-50.764;2022-09-03T03:32:48;101559.03;;;18.92
65600;BMP280;52272;-29.642;-50.764;2022-09-03T03:35:18;101557.56;;;18.62
65600;BMP280;52272;-29.642;-50.764;2022-09-03T03:37:49;101551.38;;;18.90
65600;BMP280;52272;-29.642;-50.764;2022-09-03T03:40:20;101562.59;;;18.83
65600;BMP280;52272;-29.642;-50.764;2022-09-03T03:42:50;101550.66;;;18.90
65600;BMP280;52272;-29.642;-50.764;2022-09-03T03:45:21;101555.03;;;18.73
65600;BMP280;52272;-29.642;-50.764;2022-09-03T03:47:58;101551.16;;;18.74
65600;BMP280;52272;-29.642;-50.764;2022-09-03T03:50:28;101547.69;;;18.73
65600;BMP280;52272;-29.642;-50.764;2022-09-03T03:53:00;101544.44;;;18.84
65600;BMP280;52272;-29.642;-50.764;2022-09-03T03:55:31;101542.66;;;18.81
65600;BMP280;52272;-29.642;-50.764;2022-09-03T03:58:02;101541.81;;;19.04
65600;BMP280;52272;-29.642;-50.764;2022-09-03T04:00:33;101533.63;;;18.84
65600;BMP280;52272;-29.642;-50.764;2022-09-03T04:03:07;101543.38;;;18.96
65600;BMP280;52272;-29.642;-50.764;2022-09-03T04:05:39;101549.38;;;18.71
65600;BMP280;52272;-29.642;-50.764;2022-09-03T04:08:15;101550.47;;;18.64
65600;BMP280;52272;-29.642;-50.764;2022-09-03T04:10:46;101545.34;;;18.81
65600;BMP280;52272;-29.642;-50.764;2022-09-03T04:13:16;101543.88;;;18.80
65600;BMP280;52272;-29.642;-50.764;2022-09-03T04:15:47;101537.91;;;18.76
65600;BMP280;52272;-29.642;-50.764;2022-09-03T04:18:17;101540.50;;;18.27
65600;BMP280;52272;-29.642;-50.764;2022-09-03T04:20:47;101537.38;;;18.58
65600;BMP280;52272;-29.642;-50.764;2022-09-03T04:23:17;101539.69;;;18.50
65600;BMP280;52272;-29.642;-50.764;2022-09-03T04:25:52;101532.06;;;18.63
65600;BMP280;52272;-29.642;-50.764;2022-09-03T04:28:22;101532.88;;;18.69
65600;BMP280;52272;-29.642;-50.764;2022-09-03T04:30:53;101530.50;;;18.71
65600;BMP280;52272;-29.642;-50.764;2022-09-03T04:33:24;101526.75;;;18.83
65600;BMP280;52272;-29.642;-50.764;2022-09-03T04:36:07;101522.28;;;18.80
65600;BMP280;52272;-29.642;-50.764;2022-09-03T04:38:40;101517.16;;;18.82
65600;BMP280;52272;-29.642;-50.764;2022-09-03T04:41:22;101513.34;;;18.88
65600;BMP280;52272;-29.642;-50.764;2022-09-03T04:43:58;101523.66;;;18.90
65600;BMP280;52272;-29.642;-50.764;2022-09-03T04:46:28;101530.50;;;18.71
65600;BMP280;52272;-29.642;-50.764;2022-09-03T04:49:01;101523.22;;;17.96
65600;BMP280;52272;-29.642;-50.764;2022-09-03T04:51:32;101530.28;;;18.17
65600;BMP280;52272;-29.642;-50.764;2022-09-03T04:54:02;101526.28;;;18.12
65600;BMP280;52272;-29.642;-50.764;2022-09-03T04:56:34;101539.69;;;17.98
65600;BMP280;52272;-29.642;-50.764;2022-09-03T04:59:06;101543.47;;;17.91
65600;BMP280;52272;-29.642;-50.764;2022-09-03T05:01:38;101553.81;;;17.93
65600;BMP280;52272;-29.642;-50.764;2022-09-03T05:04:08;101548.38;;;17.78
65600;BMP280;52272;-29.642;-50.764;2022-09-03T05:06:39;101545.69;;;17.78
65600;BMP280;52272;-29.642;-50.764;2022-09-03T05:09:09;101549.44;;;17.95
65600;BMP280;52272;-29.642;-50.764;2022-09-03T05:11:39;101551.53;;;17.77
65600;BMP280;52272;-29.642;-50.764;2022-09-03T05:14:09;101557.28;;;17.70
65600;BMP280;52272;-29.642;-50.764;2022-09-03T05:16:41;101564.19;;;17.85
65600;BMP280;52272;-29.642;-50.764;2022-09-03T05:19:20;101554.44;;;17.64
65600;BMP280;52272;-29.642;-50.764;2022-09-03T05:21:50;101552.00;;;17.66
65600;BMP280;52272;-29.642;-50.764;2022-09-03T05:24:21;101548.91;;;17.35
65600;BMP280;52272;-29.642;-50.764;2022-09-03T05:26:51;101544.41;;;17.32
65600;BMP280;52272;-29.642;-50.764;2022-09-03T05:29:21;101553.88;;;17.51
65600;BMP280;52272;-29.642;-50.764;2022-09-03T05:31:51;101561.72;;;17.96
65600;BMP280;52272;-29.642;-50.764;2022-09-03T05:34:22;101544.91;;;18.01
65600;BMP280;52272;-29.642;-50.764;2022-09-03T05:36:53;101548.88;;;18.29
65600;BMP280;52272;-29.642;-50.764;2022-09-03T05:39:25;101553.28;;;18.41
65600;BMP280;52272;-29.642;-50.764;2022-09-03T05:41:55;101541.16;;;18.51
65600;BMP280;52272;-29.642;-50.764;2022-09-03T05:44:26;101526.78;;;18.40
65600;BMP280;52272;-29.642;-50.764;2022-09-03T05:46:56;101545.84;;;18.65
65600;BMP280;52272;-29.642;-50.764;2022-09-03T05:49:26;101533.81;;;18.66
65600;BMP280;52272;-29.642;-50.764;2022-09-03T05:51:56;101539.94;;;18.81
65600;BMP280;52272;-29.642;-50.764;2022-09-03T05:54:26;101539.22;;;18.66
65600;BMP280;52272;-29.642;-50.764;2022-09-03T05:56:55;101537.28;;;18.52
65600;BMP280;52272;-29.642;-50.764;2022-09-03T05:59:26;101548.50;;;18.36
65600;BMP280;52272;-29.642;-50.764;2022-09-03T06:01:56;101548.81;;;18.52
65600;BMP280;52272;-29.642;-50.764;2022-09-03T06:04:28;101552.78;;;18.28
65600;BMP280;52272;-29.642;-50.764;2022-09-03T06:07:00;101562.13;;;18.56
65600;BMP280;52272;-29.642;-50.764;2022-09-03T06:09:33;101564.28;;;18.66
65600;BMP280;52272;-29.642;-50.764;2022-09-03T06:12:06;101564.78;;;18.27
65600;BMP280;52272;-29.642;-50.764;2022-09-03T06:14:37;101575.34;;;18.40
65600;BMP280;52272;-29.642;-50.764;2022-09-03T06:17:07;101571.94;;;18.45
65600;BMP280;52272;-29.642;-50.764;2022-09-03T06:19:40;101567.59;;;18.47
65600;BMP280;52272;-29.642;-50.764;2022-09-03T06:22:10;101579.22;;;18.39
65600;BMP280;52272;-29.642;-50.764;2022-09-03T06:24:39;101576.59;;;18.30
65600;BMP280;52272;-29.642;-50.764;2022-09-03T06:27:09;101582.34;;;18.23
65600;BMP280;52272;-29.642;-50.764;2022-09-03T06:29:42;101587.97;;;18.10
65600;BMP280;52272;-29.642;-50.764;2022-09-03T06:32:13;101590.81;;;17.92
65600;BMP280;52272;-29.642;-50.764;2022-09-03T06:34:44;101581.97;;;18.15
65600;BMP280;52272;-29.642;-50.764;2022-09-03T06:37:14;101578.13;;;18.07
65600;BMP280;52272;-29.642;-50.764;2022-09-03T06:39:44;101574.31;;;17.67
65600;BMP280;52272;-29.642;-50.764;2022-09-03T06:42:15;101570.38;;;17.21
65600;BMP280;52272;-29.642;-50.764;2022-09-03T06:44:48;101570.81;;;17.10
65600;BMP280;52272;-29.642;-50.764;2022-09-03T06:47:19;101585.22;;;16.98
65600;BMP280;52272;-29.642;-50.764;2022-09-03T06:49:50;101574.97;;;16.70
65600;BMP280;52272;-29.642;-50.764;2022-09-03T06:52:20;101580.94;;;16.29
65600;BMP280;52272;-29.642;-50.764;2022-09-03T06:54:51;101575.66;;;15.99
65600;BMP280;52272;-29.642;-50.764;2022-09-03T06:57:21;101567.31;;;15.97
65600;BMP280;52272;-29.642;-50.764;2022-09-03T06:59:51;101574.78;;;15.53
65600;BMP280;52272;-29.642;-50.764;2022-09-03T07:02:23;101574.66;;;15.57
65600;BMP280;52272;-29.642;-50.764;2022-09-03T07:04:53;101576.50;;;15.38
65600;BMP280;52272;-29.642;-50.764;2022-09-03T07:07:24;101581.84;;;15.38
65600;BMP280;52272;-29.642;-50.764;2022-09-03T07:09:55;101581.66;;;15.24
65600;BMP280;52272;-29.642;-50.764;2022-09-03T07:12:25;101597.03;;;15.02
65600;BMP280;52272;-29.642;-50.764;2022-09-03T07:14:56;101597.50;;;15.31
65600;BMP280;52272;-29.642;-50.764;2022-09-03T07:17:27;101593.88;;;15.25
65600;BMP280;52272;-29.642;-50.764;2022-09-03T07:19:58;101607.97;;;15.38
65600;BMP280;52272;-29.642;-50.764;2022-09-03T07:22:28;101578.03;;;15.18
65600;BMP280;52272;-29.642;-50.764;2022-09-03T07:24:59;101602.06;;;15.52
65600;BMP280;52272;-29.642;-50.764;2022-09-03T07:27:34;101596.19;;;15.35
65600;BMP280;52272;-29.642;-50.764;2022-09-03T07:30:08;101598.53;;;15.03
65600;BMP280;52272;-29.642;-50.764;2022-09-03T07:32:39;101607.44;;;15.00
65600;BMP280;52272;-29.642;-50.764;2022-09-03T07:35:09;101604.63;;;15.25
65600;BMP280;52272;-29.642;-50.764;2022-09-03T07:37:42;101608.63;;;15.20
65600;BMP280;52272;-29.642;-50.764;2022-09-03T07:40:13;101615.22;;;15.07
65600;BMP280;52272;-29.642;-50.764;2022-09-03T07:42:48;101608.88;;;14.92
65600;BMP280;52272;-29.642;-50.764;2022-09-03T07:45:23;101618.16;;;15.00
65600;BMP280;52272;-29.642;-50.764;2022-09-03T07:47:53;101616.81;;;14.95
65600;BMP280;52272;-29.642;-50.764;2022-09-03T07:50:23;101613.50;;;14.91
65600;BMP280;52272;-29.642;-50.764;2022-09-03T07:52:56;101618.56;;;14.77
65600;BMP280;52272;-29.642;-50.764;2022-09-03T07:55:30;101630.03;;;14.90
65600;BMP280;52272;-29.642;-50.764;2022-09-03T07:58:00;101641.38;;;14.72
65600;BMP280;52272;-29.642;-50.764;2022-09-03T08:00:30;101645.78;;;14.66
65600;BMP280;52272;-29.642;-50.764;2022-09-03T08:03:02;101616.16;;;14.36
65600;BMP280;52272;-29.642;-50.764;2022-09-03T08:05:37;101650.47;;;14.41
65600;BMP280;52272;-29.642;-50.764;2022-09-03T08:08:07;101645.97;;;14.13
65600;BMP280;52272;-29.642;-50.764;2022-09-03T08:10:43;101642.22;;;13.98
65600;BMP280;52272;-29.642;-50.764;2022-09-03T08:13:13;101646.19;;;14.06
65600;BMP280;52272;-29.642;-50.764;2022-09-03T08:15:43;101639.75;;;14.04
65600;BMP280;52272;-29.642;-50.764;2022-09-03T08:18:13;101648.53;;;13.79
65600;BMP280;52272;-29.642;-50.764;2022-09-03T08:20:44;101646.47;;;13.58
65600;BMP280;52272;-29.642;-50.764;2022-09-03T08:23:14;101649.84;;;13.46
65600;BMP280;52272;-29.642;-50.764;2022-09-03T08:25:44;101650.63;;;13.59
65600;BMP280;52272;-29.642;-50.764;2022-09-03T08:28:15;101662.00;;;13.63
65600;BMP280;52272;-29.642;-50.764;2022-09-03T08:30:47;101673.28;;;13.42
65600;BMP280;52272;-29.642;-50.764;2022-09-03T08:33:18;101677.47;;;13.43
65600;BMP280;52272;-29.642;-50.764;2022-09-03T08:38:44;101682.72;;;13.18
65600;BMP280;52272;-29.642;-50.764;2022-09-03T08:44:08;101693.59;;;13.27
65600;BMP280;52272;-29.642;-50.764;2022-09-03T08:49:44;101708.38;;;13.16
65600;BMP280;52272;-29.642;-50.764;2022-09-03T08:52:40;101703.97;;;13.09
65600;BMP280;52272;-29.642;-50.764;2022-09-03T08:55:30;101694.75;;;13.10
65600;BMP280;52272;-29.642;-50.764;2022-09-03T08:58:06;101702.28;;;13.15
65600;BMP280;52272;-29.642;-50.764;2022-09-03T09:06:57;101711.91;;;12.97
65600;BMP280;52272;-29.642;-50.764;2022-09-03T09:09:57;101721.56;;;12.78
65600;BMP280;52272;-29.642;-50.764;2022-09-03T09:15:37;101728.16;;;12.74
65600;BMP280;52272;-29.642;-50.764;2022-09-03T09:23:56;101742.50;;;12.64
65600;BMP280;52272;-29.642;-50.764;2022-09-03T09:26:32;101744.00;;;12.97
65600;BMP280;52272;-29.642;-50.764;2022-09-03T09:29:08;101760.00;;;13.00
65600;BMP280;52272;-29.642;-50.764;2022-09-03T09:31:40;101752.94;;;13.22
65600;BMP280;52272;-29.642;-50.764;2022-09-03T09:34:14;101761.19;;;13.28
65600;BMP280;52272;-29.642;-50.764;2022-09-03T09:36:51;101765.94;;;13.52
65600;BMP280;52272;-29.642;-50.764;2022-09-03T09:39:22;101770.84;;;13.54
65600;BMP280;52272;-29.642;-50.764;2022-09-03T09:42:00;101767.09;;;13.67
65600;BMP280;52272;-29.642;-50.764;2022-09-03T09:44:35;101771.06;;;13.75
65600;BMP280;52272;-29.642;-50.764;2022-09-03T09:47:20;101766.63;;;13.97
65600;BMP280;52272;-29.642;-50.764;2022-09-03T09:49:56;101772.91;;;13.91
65600;BMP280;52272;-29.642;-50.764;2022-09-03T09:52:28;101777.16;;;14.04
65600;BMP280;52272;-29.642;-50.764;2022-09-03T09:55:18;101781.41;;;14.02
65600;BMP280;52272;-29.642;-50.764;2022-09-03T09:57:52;101775.44;;;14.10
65600;BMP280;52272;-29.642;-50.764;2022-09-03T10:00:23;101789.19;;;14.12
65600;BMP280;52272;-29.642;-50.764;2022-09-03T10:02:53;101781.56;;;14.11
65600;BMP280;52272;-29.642;-50.764;2022-09-03T10:05:26;101779.09;;;14.16
65600;BMP280;52272;-29.642;-50.764;2022-09-03T10:08:01;101791.00;;;14.15
65600;BMP280;52272;-29.642;-50.764;2022-09-03T10:10:41;101798.47;;;14.08
65600;BMP280;52272;-29.642;-50.764;2022-09-03T10:13:23;101801.72;;;14.15
65600;BMP280;52272;-29.642;-50.764;2022-09-03T10:26:57;101817.66;;;14.06
65600;BMP280;52272;-29.642;-50.764;2022-09-03T10:29:27;101818.97;;;14.27
65600;BMP280;52272;-29.642;-50.764;2022-09-03T10:32:12;101818.06;;;14.46
65600;BMP280;52272;-29.642;-50.764;2022-09-03T10:37:50;101825.22;;;14.36
65600;BMP280;52272;-29.642;-50.764;2022-09-03T10:40:50;101821.38;;;14.62
65600;BMP280;52272;-29.642;-50.764;2022-09-03T10:46:16;101823.81;;;14.44
65600;BMP280;52272;-29.642;-50.764;2022-09-03T10:49:19;101831.47;;;14.83
65600;BMP280;52272;-29.642;-50.764;2022-09-03T11:01:22;101833.94;;;14.77
65600;BMP280;52272;-29.642;-50.764;2022-09-03T11:12:02;101834.69;;;15.37
65600;BMP280;52272;-29.642;-50.764;2022-09-03T11:14:45;101836.09;;;15.63
65600;BMP280;52272;-29.642;-50.764;2022-09-03T11:17:24;101830.56;;;15.79
65600;BMP280;52272;-29.642;-50.764;2022-09-03T11:20:23;101829.63;;;16.25
65600;BMP280;52272;-29.642;-50.764;2022-09-03T11:23:00;101829.22;;;16.66
65600;BMP280;52272;-29.642;-50.764;2022-09-03T11:25:55;101819.47;;;16.68
65600;BMP280;52272;-29.642;-50.764;2022-09-03T11:31:45;101833.63;;;17.08
65600;BMP280;52272;-29.642;-50.764;2022-09-03T11:34:28;101844.28;;;17.29
65600;BMP280;52272;-29.642;-50.764;2022-09-03T11:37:24;101848.50;;;17.48
65600;BMP280;52272;-29.642;-50.764;2022-09-03T11:40:05;101847.88;;;17.35
65600;BMP280;52272;-29.642;-50.764;2022-09-03T11:42:42;101852.19;;;17.42
65600;BMP280;52272;-29.642;-50.764;2022-09-03T11:47:54;101858.88;;;18.09
65600;BMP280;52272;-29.642;-50.764;2022-09-03T11:50:31;101857.84;;;18.07
65600;BMP280;52272;-29.642;-50.764;2022-09-03T11:53:20;101859.91;;;18.21
65600;BMP280;52272;-29.642;-50.764;2022-09-03T11:58:37;101876.94;;;19.15
65600;BMP280;52272;-29.642;-50.764;2022-09-03T12:01:14;101873.66;;;19.49
65600;BMP280;52272;-29.642;-50.764;2022-09-03T12:06:30;101875.03;;;19.59
65600;BMP280;52272;-29.642;-50.764;2022-09-03T12:20:15;101896.00;;;20.56
65600;BMP280;52272;-29.642;-50.764;2022-09-03T12:22:47;101897.53;;;21.17
65600;BMP280;52272;-29.642;-50.764;2022-09-03T12:25:17;101902.13;;;21.56
65600;BMP280;52272;-29.642;-50.764;2022-09-03T12:27:47;101912.56;;;21.63
65600;BMP280;52272;-29.642;-50.764;2022-09-03T12:30:23;101903.81;;;21.53
65600;BMP280;52272;-29.642;-50.764;2022-09-03T12:33:05;101904.72;;;21.70
65600;BMP280;52272;-29.642;-50.764;2022-09-03T12:35:36;101914.41;;;22.08
65600;BMP280;52272;-29.642;-50.764;2022-09-03T12:38:27;101923.31;;;21.52
65600;BMP280;52272;-29.642;-50.764;2022-09-03T12:41:28;101931.44;;;21.32
65600;BMP280;52272;-29.642;-50.764;2022-09-03T12:43:59;101940.34;;;21.33
65600;BMP280;52272;-29.642;-50.764;2022-09-03T12:46:32;101941.69;;;21.23
65600;BMP280;52272;-29.642;-50.764;2022-09-03T12:49:05;101937.19;;;20.94
65600;BMP280;52272;-29.642;-50.764;2022-09-03T12:52:02;101927.34;;;20.13
65600;BMP280;52272;-29.642;-50.764;2022-09-03T12:54:47;101930.31;;;19.58
65600;BMP280;52272;-29.642;-50.764;2022-09-03T12:57:23;101929.97;;;19.65
65600;BMP280;52272;-29.642;-50.764;2022-09-03T12:59:58;101918.06;;;19.10
65600;BMP280;52272;-29.642;-50.764;2022-09-03T13:02:45;101931.09;;;19.73
65600;BMP280;52272;-29.642;-50.764;2022-09-03T13:05:20;101934.56;;;19.88
65600;BMP280;52272;-29.642;-50.764;2022-09-03T13:07:56;101936.13;;;19.80
65600;BMP280;52272;-29.642;-50.764;2022-09-03T13:10:38;101933.88;;;19.64
65600;BMP280;52272;-29.642;-50.764;2022-09-03T13:19:02;101937.84;;;21.80
65600;BMP280;52272;-29.642;-50.764;2022-09-03T13:21:44;101939.59;;;22.14
65600;BMP280;52272;-29.642;-50.764;2022-09-03T13:30:15;101932.28;;;19.72
65600;BMP280;52272;-29.642;-50.764;2022-09-03T13:33:04;101943.56;;;20.42
65600;BMP280;52272;-29.642;-50.764;2022-09-03T13:46:59;101943.69;;;20.19
65600;BMP280;52272;-29.642;-50.764;2022-09-03T13:49:50;101950.03;;;20.30
65600;BMP280;52272;-29.642;-50.764;2022-09-03T13:52:53;101949.63;;;21.77
65600;BMP280;52272;-29.642;-50.764;2022-09-03T13:58:16;101947.53;;;21.86
65600;BMP280;52272;-29.642;-50.764;2022-09-03T14:01:03;101947.59;;;20.32
65600;BMP280;52272;-29.642;-50.764;2022-09-03T14:03:45;101941.38;;;19.22
65600;BMP280;52272;-29.642;-50.764;2022-09-03T14:15:07;101931.78;;;22.21
65600;BMP280;52272;-29.642;-50.764;2022-09-03T14:20:58;101934.84;;;21.27
65600;BMP280;52272;-29.642;-50.764;2022-09-03T14:26:53;101933.81;;;22.32
65600;BMP280;52272;-29.642;-50.764;2022-09-03T14:29:27;101940.09;;;21.56
65600;BMP280;52272;-29.642;-50.764;2022-09-03T14:37:28;101941.97;;;21.70
65600;BMP280;52272;-29.642;-50.764;2022-09-03T14:40:10;101940.72;;;23.88
65600;BMP280;52272;-29.642;-50.764;2022-09-03T14:48:49;101941.34;;;19.69
65600;BMP280;52272;-29.642;-50.764;2022-09-03T14:51:46;101940.13;;;20.76
65600;BMP280;52272;-29.642;-50.764;2022-09-03T15:06:17;101936.03;;;22.70
65600;BMP280;52272;-29.642;-50.764;2022-09-03T15:09:26;101924.28;;;20.69
65600;BMP280;52272;-29.642;-50.764;2022-09-03T15:12:05;101930.38;;;21.24
65600;BMP280;52272;-29.642;-50.764;2022-09-03T15:23:06;101924.28;;;23.05
65600;BMP280;52272;-29.642;-50.764;2022-09-03T15:35:27;101921.59;;;22.53
65600;BMP280;52272;-29.642;-50.764;2022-09-03T15:38:06;101921.88;;;23.29
65600;BMP280;52272;-29.642;-50.764;2022-09-03T15:40:50;101909.41;;;22.85
65600;BMP280;52272;-29.642;-50.764;2022-09-03T15:43:30;101914.28;;;22.70
65600;BMP280;52272;-29.642;-50.764;2022-09-03T15:46:04;101910.88;;;22.85
65600;BMP280;52272;-29.642;-50.764;2022-09-03T15:49:01;101910.28;;;24.68
65600;BMP280;52272;-29.642;-50.764;2022-09-03T15:51:39;101902.69;;;25.36
65600;BMP280;52272;-29.642;-50.764;2022-09-03T15:54:16;101901.44;;;25.31
65600;BMP280;52272;-29.642;-50.764;2022-09-03T15:59:41;101910.38;;;25.03
65600;BMP280;52272;-29.642;-50.764;2022-09-03T16:05:27;101895.19;;;23.83
65600;BMP280;52272;-29.642;-50.764;2022-09-03T16:12:00;101893.81;;;24.90
65600;BMP280;52272;-29.642;-50.764;2022-09-03T16:14:31;101890.25;;;25.06
65600;BMP280;52272;-29.642;-50.764;2022-09-03T16:23:15;101879.19;;;22.72
65600;BMP280;52272;-29.642;-50.764;2022-09-03T16:28:19;101877.13;;;23.30
65600;BMP280;52272;-29.642;-50.764;2022-09-03T16:51:12;101854.56;;;22.91
65600;BMP280;52272;-29.642;-50.764;2022-09-03T16:54:09;101840.00;;;23.82
65600;BMP280;52272;-29.642;-50.764;2022-09-03T17:00:05;101849.50;;;24.38
65600;BMP280;52272;-29.642;-50.764;2022-09-03T17:12:22;101859.66;;;18.33
65600;BMP280;52272;-29.642;-50.764;2022-09-03T17:17:55;101856.41;;;17.43
65600;BMP280;52272;-29.642;-50.764;2022-09-03T17:29:43;101839.72;;;21.25
65600;BMP280;52272;-29.642;-50.764;2022-09-03T17:36:05;101844.47;;;20.30
65600;BMP280;52272;-29.642;-50.764;2022-09-03T17:41:17;101831.38;;;23.40
65600;BMP280;52272;-29.642;-50.764;2022-09-03T17:44:06;101825.31;;;25.57
65600;BMP280;52272;-29.642;-50.764;2022-09-03T17:49:41;101831.59;;;25.52
65600;BMP280;52272;-29.642;-50.764;2022-09-03T17:55:30;101822.69;;;26.68
65600;BMP280;52272;-29.642;-50.764;2022-09-03T18:01:12;101816.75;;;26.14
65600;BMP280;52272;-29.642;-50.764;2022-09-03T18:04:11;101822.16;;;25.77
65600;BMP280;52272;-29.642;-50.764;2022-09-03T18:09:47;101821.84;;;26.05
65600;BMP280;52272;-29.642;-50.764;2022-09-03T18:12:55;101826.56;;;26.91
65600;BMP280;52272;-29.642;-50.764;2022-09-03T18:15:58;101829.28;;;27.22
65600;BMP280;52272;-29.642;-50.764;2022-09-03T18:18:32;101819.22;;;26.12
65600;BMP280;52272;-29.642;-50.764;2022-09-03T18:21:07;101827.28;;;25.33
65600;BMP280;52272;-29.642;-50.764;2022-09-03T18:30:19;101838.22;;;24.63
65600;BMP280;52272;-29.642;-50.764;2022-09-03T18:33:19;101826.34;;;25.78
65600;BMP280;52272;-29.642;-50.764;2022-09-03T18:36:10;101835.09;;;25.71
65600;BMP280;52272;-29.642;-50.764;2022-09-03T18:45:25;101823.53;;;24.72
65600;BMP280;52272;-29.642;-50.764;2022-09-03T19:01:31;101829.78;;;24.10
65600;BMP280;52272;-29.642;-50.764;2022-09-03T19:05:18;101840.56;;;24.43
65600;BMP280;52272;-29.642;-50.764;2022-09-03T19:13:55;101826.16;;;22.87
65600;BMP280;52272;-29.642;-50.764;2022-09-03T19:17:10;101826.22;;;22.40
65600;BMP280;52272;-29.642;-50.764;2022-09-03T19:20:34;101827.59;;;24.03
65600;BMP280;52272;-29.642;-50.764;2022-09-03T19:23:24;101836.25;;;23.96
65600;BMP280;52272;-29.642;-50.764;2022-09-03T19:26:39;101835.56;;;25.51
65600;BMP280;52272;-29.642;-50.764;2022-09-03T19:30:00;101822.31;;;25.08
65600;BMP280;52272;-29.642;-50.764;2022-09-03T19:33:22;101835.47;;;25.33
65600;BMP280;52272;-29.642;-50.764;2022-09-03T19:36:24;101834.78;;;25.56
65600;BMP280;52272;-29.642;-50.764;2022-09-03T19:39:29;101828.84;;;25.52
65600;BMP280;52272;-29.642;-50.764;2022-09-03T19:46:21;101826.66;;;26.17
65600;BMP280;52272;-29.642;-50.764;2022-09-03T19:49:13;101829.09;;;26.39
65600;BMP280;52272;-29.642;-50.764;2022-09-03T19:55:11;101835.81;;;26.20
65600;BMP280;52272;-29.642;-50.764;2022-09-03T19:58:00;101830.47;;;26.27